Time;durP1;ratioP1;P1;durP2;ratioP2;P2;SDS_P1;SDS_P2;PMS_P1;PMS_P2;Temp;Humidity;BMP_temperature;BMP_pressure;BME280_temperature;BME280_humidity;BME280_pressure;Samples;Min_cycle;Max_cycle;Signal;HPM_P1;HPM_P2
2021/03/21 00:00:10;;;;;;;24.70;9.93;;;;;;;1.78;100.00;95522.94;5052792;28;20285;-60
2021/03/21 00:02:38;;;;;;;28.20;10.57;;;;;;;1.71;100.00;95523.88;5052323;28;20285;-60
2021/03/21 00:05:06;;;;;;;35.57;13.90;;;;;;;1.66;100.00;95528.94;5052270;28;20279;-60
2021/03/21 00:07:33;;;;;;;29.97;11.20;;;;;;;1.69;100.00;95538.69;5052211;28;20748;-61
2021/03/21 00:10:00;;;;;;;32.57;12.47;;;;;;;1.65;100.00;95547.84;5051897;28;20214;-60
2021/03/21 00:12:28;;;;;;;34.93;11.40;;;;;;;1.70;100.00;95547.16;5052112;28;20336;-60
2021/03/21 00:14:54;;;;;;;28.83;10.00;;;;;;;1.67;100.00;95539.94;5052031;28;20262;-60
2021/03/21 00:17:21;;;;;;;29.90;9.60;;;;;;;1.83;100.00;95541.69;5052071;28;20324;-60
2021/03/21 00:19:48;;;;;;;45.23;15.17;;;;;;;1.75;100.00;95529.28;5052052;28;20205;-60
2021/03/21 00:22:15;;;;;;;33.70;12.30;;;;;;;1.77;100.00;95524.72;5051970;28;20283;-60
2021/03/21 00:24:42;;;;;;;35.43;10.60;;;;;;;1.77;100.00;95534.19;5051754;28;20233;-61
2021/03/21 00:27:09;;;;;;;38.57;15.90;;;;;;;1.84;100.00;95527.88;5051926;28;20246;-60
2021/03/21 00:29:37;;;;;;;33.60;14.20;;;;;;;1.83;100.00;95536.59;5051628;28;20285;-60
2021/03/21 00:32:06;;;;;;;28.07;10.47;;;;;;;1.70;100.00;95521.53;5051051;28;20247;-61
2021/03/21 00:34:32;;;;;;;37.30;21.27;;;;;;;1.71;100.00;95521.31;5051625;28;20722;-60
2021/03/21 00:37:00;;;;;;;25.23;14.80;;;;;;;1.77;100.00;95498.31;5051533;28;20311;-60
2021/03/21 00:39:27;;;;;;;24.67;12.10;;;;;;;1.87;100.00;95509.47;5051548;28;20190;-60
2021/03/21 00:41:54;;;;;;;19.07;8.33;;;;;;;1.86;100.00;95481.53;5051502;28;20704;-60
2021/03/21 00:44:21;;;;;;;22.80;12.43;;;;;;;1.83;100.00;95499.94;5051474;28;20285;-60
2021/03/21 00:46:48;;;;;;;19.10;9.47;;;;;;;1.91;100.00;95494.38;5051401;28;20229;-61
2021/03/21 00:49:15;;;;;;;32.80;20.10;;;;;;;1.84;100.00;95512.53;5051089;28;20327;-60
2021/03/21 00:51:42;;;;;;;23.57;14.07;;;;;;;1.86;100.00;95484.09;5051416;28;20562;-60
2021/03/21 00:54:09;;;;;;;18.73;9.03;;;;;;;1.95;100.00;95487.78;5051129;28;20774;-60
2021/03/21 00:56:38;;;;;;;23.77;12.90;;;;;;;2.00;100.00;95465.53;5051109;28;20313;-60
2021/03/21 00:59:06;;;;;;;15.80;8.40;;;;;;;1.96;100.00;95494.44;5051120;28;20254;-60
2021/03/21 01:01:33;;;;;;;45.80;22.27;;;;;;;1.96;100.00;95491.88;5051108;28;20195;-60
2021/03/21 01:04:01;;;;;;;25.87;14.23;;;;;;;1.93;100.00;95505.19;5051023;28;20278;-60
2021/03/21 01:06:29;;;;;;;17.47;10.37;;;;;;;1.91;100.00;95494.38;5051011;28;20802;-60
2021/03/21 01:08:59;;;;;;;18.90;11.70;;;;;;;1.91;100.00;95495.16;5050879;28;20254;-60
2021/03/21 01:11:28;;;;;;;14.50;8.93;;;;;;;1.90;100.00;95482.59;5050863;28;20357;-60
2021/03/21 01:13:56;;;;;;;23.60;13.70;;;;;;;1.89;100.00;95501.56;5050800;28;20285;-60
2021/03/21 01:16:25;;;;;;;24.27;15.37;;;;;;;1.91;100.00;95490.03;5050716;28;20233;-60
2021/03/21 01:18:53;;;;;;;33.67;18.17;;;;;;;1.97;100.00;95501.91;5050734;28;20197;-60
2021/03/21 01:21:23;;;;;;;29.97;17.23;;;;;;;1.95;100.00;95500.59;5050757;28;20274;-60
2021/03/21 01:23:50;;;;;;;11.07;6.73;;;;;;;2.08;100.00;95480.50;5050701;28;20660;-60
2021/03/21 01:26:20;;;;;;;14.50;8.27;;;;;;;1.98;100.00;95474.50;5050703;28;20732;-60
2021/03/21 01:28:48;;;;;;;4.57;2.53;;;;;;;1.99;100.00;95469.13;5050608;28;20255;-60
2021/03/21 01:31:18;;;;;;;11.67;4.50;;;;;;;1.93;100.00;95464.97;5050657;28;20209;-60
2021/03/21 01:33:45;;;;;;;9.17;3.13;;;;;;;1.92;100.00;95471.09;5050518;28;20194;-60
2021/03/21 01:36:15;;;;;;;5.53;2.70;;;;;;;1.93;100.00;95497.50;5050390;28;20314;-60
2021/03/21 01:38:43;;;;;;;12.97;5.33;;;;;;;1.83;100.00;95493.03;5050509;28;20287;-60
2021/03/21 01:41:15;;;;;;;6.43;3.30;;;;;;;1.81;100.00;95510.41;5050425;28;20249;-60
2021/03/21 01:43:43;;;;;;;3.10;1.83;;;;;;;1.85;100.00;95492.78;5050091;28;20283;-60
2021/03/21 01:46:14;;;;;;;3.13;1.87;;;;;;;1.81;100.00;95496.81;5050242;28;20202;-60
2021/03/21 01:48:45;;;;;;;2.73;1.40;;;;;;;1.84;100.00;95492.03;5050139;28;20656;-60
2021/03/21 01:51:16;;;;;;;1.37;1.00;;;;;;;1.81;100.00;95473.78;5050356;28;20196;-60
2021/03/21 01:53:46;;;;;;;1.30;1.10;;;;;;;1.80;100.00;95469.66;5050169;28;20209;-60
2021/03/21 01:56:13;;;;;;;2.00;1.17;;;;;;;1.94;100.00;95465.75;5050276;28;20293;-60
2021/03/21 01:58:44;;;;;;;5.70;1.97;;;;;;;1.89;100.00;95451.09;5050087;28;20282;-60
2021/03/21 02:01:16;;;;;;;5.50;2.40;;;;;;;1.82;100.00;95462.53;5050052;28;20644;-60
2021/03/21 02:03:43;;;;;;;7.13;3.10;;;;;;;1.78;100.00;95469.13;5049936;28;20352;-60
2021/03/21 02:06:33;;;;;;;11.80;5.10;;;;;;;1.73;100.00;95457.81;5050007;28;20201;-60
2021/03/21 02:09:09;;;;;;;12.73;5.30;;;;;;;1.61;100.00;95469.19;5050049;28;20282;-60
2021/03/21 02:11:49;;;;;;;9.87;4.30;;;;;;;1.68;100.00;95450.09;5049837;28;20213;-60
2021/03/21 02:14:23;;;;;;;9.67;4.60;;;;;;;1.70;100.00;95454.94;5050111;28;20198;-60
2021/03/21 02:16:59;;;;;;;10.30;5.40;;;;;;;1.71;100.00;95453.94;5050040;28;20595;-60
2021/03/21 02:19:59;;;;;;;9.27;5.03;;;;;;;1.70;100.00;95457.50;5049969;28;20198;-60
2021/03/21 02:22:30;;;;;;;8.93;4.77;;;;;;;1.62;100.00;95455.38;5049846;28;20200;-60
2021/03/21 02:25:15;;;;;;;11.27;5.13;;;;;;;1.67;100.00;95455.44;5049918;28;20205;-60
2021/03/21 02:27:56;;;;;;;7.30;4.20;;;;;;;1.61;100.00;95457.16;5049737;28;20671;-60
2021/03/21 02:30:28;;;;;;;7.13;3.80;;;;;;;1.70;100.00;95455.72;5050047;28;20185;-61
2021/03/21 02:33:03;;;;;;;6.10;4.17;;;;;;;1.60;100.00;95463.28;5049769;28;20348;-60
2021/03/21 02:35:37;;;;;;;5.60;3.93;;;;;;;1.52;100.00;95461.13;5049674;28;20243;-58
2021/03/21 02:38:10;;;;;;;7.90;4.90;;;;;;;1.57;100.00;95468.88;5049683;28;20259;-60
2021/03/21 02:40:42;;;;;;;6.07;3.93;;;;;;;1.66;100.00;95467.47;5049594;28;20198;-60
2021/03/21 02:43:14;;;;;;;5.43;3.80;;;;;;;1.61;100.00;95464.84;5049720;28;20227;-60
2021/03/21 02:45:45;;;;;;;7.77;4.53;;;;;;;1.61;100.00;95480.19;5049765;28;20202;-58
2021/03/21 02:48:15;;;;;;;7.27;4.20;;;;;;;1.66;100.00;95472.59;5049370;28;20716;-60
2021/03/21 02:50:47;;;;;;;5.83;3.97;;;;;;;1.72;100.00;95466.50;5049742;28;20280;-60
2021/03/21 02:53:19;;;;;;;5.70;3.93;;;;;;;1.73;100.00;95468.06;5049563;28;20754;-60
2021/03/21 02:55:49;;;;;;;7.77;3.73;;;;;;;1.59;100.00;95446.41;5051524;28;20232;-60
2021/03/21 02:58:20;;;;;;;4.90;3.20;;;;;;;1.53;100.00;95465.25;5053404;28;20205;-60
2021/03/21 03:00:54;;;;;;;3.90;2.40;;;;;;;1.55;100.00;95460.66;5053545;28;20696;-60
2021/03/21 03:03:23;;;;;;;4.00;2.50;;;;;;;1.50;100.00;95452.13;5053488;28;20236;-60
2021/03/21 03:05:53;;;;;;;3.23;2.17;;;;;;;1.51;100.00;95454.47;5053226;28;20251;-60
2021/03/21 03:08:26;;;;;;;4.60;2.60;;;;;;;1.51;100.00;95459.59;5053297;28;20273;-60
2021/03/21 03:10:58;;;;;;;5.17;3.17;;;;;;;1.64;100.00;95464.34;5053249;28;20219;-58
2021/03/21 03:13:29;;;;;;;4.70;3.20;;;;;;;1.57;100.00;95463.00;5053170;28;20682;-60
2021/03/21 03:16:03;;;;;;;3.77;2.77;;;;;;;1.61;100.00;95457.16;5052874;28;20229;-60
2021/03/21 03:18:41;;;;;;;5.27;3.60;;;;;;;1.66;100.00;95462.34;5053251;28;20195;-61
2021/03/21 03:21:16;;;;;;;4.13;2.73;;;;;;;1.65;100.00;95455.66;5053151;28;20599;-61
2021/03/21 03:23:50;;;;;;;4.77;3.43;;;;;;;1.64;100.00;95454.09;5053123;28;20197;-61
2021/03/21 03:26:23;;;;;;;5.63;3.10;;;;;;;1.63;100.00;95442.34;5053036;28;20302;-60
2021/03/21 03:28:59;;;;;;;4.73;2.93;;;;;;;1.60;100.00;95445.34;5053266;28;20193;-61
2021/03/21 03:31:34;;;;;;;5.10;3.17;;;;;;;1.51;100.00;95444.22;5053065;28;20217;-61
2021/03/21 03:34:01;;;;;;;4.57;2.53;;;;;;;1.56;100.00;95444.28;5052949;28;20214;-61
2021/03/21 03:36:28;;;;;;;6.70;3.00;;;;;;;1.58;100.00;95437.16;5052576;28;20316;-61
2021/03/21 03:38:55;;;;;;;5.43;2.67;;;;;;;1.41;100.00;95433.84;5052584;28;20230;-61
2021/03/21 03:41:32;;;;;;;3.50;2.10;;;;;;;1.52;100.00;95445.78;5052669;28;20321;-61
2021/03/21 03:44:08;;;;;;;2.90;1.60;;;;;;;1.53;100.00;95447.34;5052655;28;20579;-62
2021/03/21 03:46:44;;;;;;;3.33;1.83;;;;;;;1.48;100.00;95438.81;5052959;28;20728;-62
2021/03/21 03:49:22;;;;;;;2.73;1.90;;;;;;;1.52;100.00;95445.00;5052495;28;20246;-62
2021/03/21 03:52:03;;;;;;;4.60;2.50;;;;;;;1.46;100.00;95466.41;5052757;28;20667;-62
2021/03/21 03:54:35;;;;;;;3.90;2.20;;;;;;;1.42;100.00;95466.13;5052548;28;20193;-61
2021/03/21 03:57:09;;;;;;;4.07;2.73;;;;;;;1.37;100.00;95473.75;5052407;28;20321;-60
2021/03/21 03:59:59;;;;;;;3.43;2.20;;;;;;;1.44;100.00;95468.47;5052387;28;20284;-61
2021/03/21 04:02:38;;;;;;;3.80;1.90;;;;;;;1.41;100.00;95468.91;5052282;28;20665;-61
2021/03/21 04:05:14;;;;;;;4.27;2.20;;;;;;;1.35;100.00;95455.28;5052319;28;20650;-61
2021/03/21 04:07:45;;;;;;;3.67;1.97;;;;;;;1.47;100.00;95453.41;5051074;28;20201;-61
2021/03/21 04:10:19;;;;;;;3.97;2.00;;;;;;;1.44;100.00;95451.31;5052285;28;20223;-61
2021/03/21 04:12:54;;;;;;;1.53;1.23;;;;;;;1.44;100.00;95445.41;5052423;28;20598;-62
2021/03/21 04:15:24;;;;;;;3.03;1.87;;;;;;;1.35;100.00;95452.72;5052120;28;22179;-61
2021/03/21 04:17:57;;;;;;;6.80;3.43;;;;;;;1.44;100.00;95450.53;5051950;28;20233;-60
2021/03/21 04:20:28;;;;;;;3.03;2.00;;;;;;;1.47;100.00;95448.28;5051923;28;20348;-61
2021/03/21 04:23:03;;;;;;;3.47;2.30;;;;;;;1.36;100.00;95459.38;5052322;28;20206;-61
2021/03/21 04:25:35;;;;;;;3.47;1.77;;;;;;;1.39;100.00;95464.06;5051876;28;20664;-61
2021/03/21 04:28:09;;;;;;;3.10;1.90;;;;;;;1.44;100.00;95465.91;5051890;28;20631;-61
2021/03/21 04:30:40;;;;;;;3.17;1.93;;;;;;;1.51;100.00;95476.72;5051689;28;20209;-60
2021/03/21 04:33:12;;;;;;;2.93;1.93;;;;;;;1.47;100.00;95471.31;5051650;28;20201;-60
2021/03/21 04:35:42;;;;;;;4.30;2.60;;;;;;;1.45;100.00;95465.66;5051722;28;20235;-60
2021/03/21 04:38:15;;;;;;;4.70;2.50;;;;;;;1.42;100.00;95460.22;5051847;28;20273;-61
2021/03/21 04:40:44;;;;;;;3.30;2.10;;;;;;;1.44;100.00;95459.00;5051648;28;20661;-60
2021/03/21 04:43:15;;;;;;;3.97;2.50;;;;;;;1.42;100.00;95462.78;5051419;28;20233;-61
2021/03/21 04:45:47;;;;;;;4.73;2.53;;;;;;;1.42;100.00;95466.13;5051720;28;20292;-61
2021/03/21 04:48:22;;;;;;;5.07;2.80;;;;;;;1.50;100.00;95462.38;5051394;28;20631;-60
2021/03/21 04:50:56;;;;;;;13.80;6.87;;;;;;;1.51;100.00;95464.72;5051432;28;20653;-61
2021/03/21 04:53:35;;;;;;;14.17;7.30;;;;;;;1.59;100.00;95468.66;5051289;28;20276;-61
2021/03/21 04:56:07;;;;;;;17.07;8.87;;;;;;;1.53;100.00;95467.03;5051141;28;20734;-61
2021/03/21 04:58:39;;;;;;;13.53;7.27;;;;;;;1.56;100.00;95467.34;5051304;28;20198;-61
2021/03/21 05:01:10;;;;;;;15.43;8.90;;;;;;;1.53;100.00;95456.78;5051419;28;20201;-61
2021/03/21 05:03:44;;;;;;;33.53;14.03;;;;;;;1.66;100.00;95451.31;5051246;28;20208;-61
2021/03/21 05:06:16;;;;;;;29.00;14.50;;;;;;;1.59;100.00;95461.75;5050287;28;20289;-61
2021/03/21 05:08:52;;;;;;;33.23;16.77;;;;;;;1.49;100.00;95455.72;5051238;28;20267;-61
2021/03/21 05:11:20;;;;;;;21.33;12.10;;;;;;;1.58;100.00;95456.88;5050680;28;20302;-61
2021/03/21 05:13:56;;;;;;;16.23;9.23;;;;;;;1.62;100.00;95443.34;5050863;28;20285;-60
2021/03/21 05:16:28;;;;;;;14.67;8.67;;;;;;;1.59;100.00;95448.94;5050848;28;20226;-60
2021/03/21 05:19:08;;;;;;;15.30;9.77;;;;;;;1.65;100.00;95454.88;5050641;28;20204;-60
2021/03/21 05:21:42;;;;;;;18.03;10.13;;;;;;;1.56;100.00;95441.72;5050885;28;20221;-61
2021/03/21 05:24:15;;;;;;;18.53;8.93;;;;;;;1.59;100.00;95436.16;5050873;28;20201;-61
2021/03/21 05:26:45;;;;;;;21.97;10.50;;;;;;;1.64;100.00;95433.63;5050649;28;20277;-62
2021/03/21 05:29:39;;;;;;;17.20;9.63;;;;;;;1.59;100.00;95425.13;5050586;28;20189;-60
2021/03/21 05:32:08;;;;;;;16.63;9.40;;;;;;;1.67;100.00;95422.13;5050595;28;20286;-60
2021/03/21 05:34:37;;;;;;;15.97;10.63;;;;;;;1.57;100.00;95427.91;5050513;28;20198;-62
2021/03/21 05:37:20;;;;;;;32.30;18.47;;;;;;;1.61;100.00;95431.53;5050473;28;20234;-61
2021/03/21 05:39:57;;;;;;;20.83;13.40;;;;;;;1.63;100.00;95434.66;5050447;28;20206;-60
2021/03/21 05:43:14;;;;;;;21.70;12.43;;;;;;;1.66;100.00;95435.94;5050416;28;20201;-60
2021/03/21 05:46:15;;;;;;;22.70;12.40;;;;;;;1.77;100.00;95453.00;5050393;28;20251;-60
2021/03/21 05:49:07;;;;;;;26.70;13.63;;;;;;;1.81;100.00;95453.28;5048043;28;20261;-60
2021/03/21 05:52:26;;;;;;;17.90;8.97;;;;;;;1.81;100.00;95455.84;5050131;28;20205;-59
2021/03/21 05:55:31;;;;;;;15.73;8.67;;;;;;;1.78;100.00;95462.22;5026120;28;20202;-60
2021/03/21 05:58:32;;;;;;;19.03;8.70;;;;;;;1.72;100.00;95455.50;5043229;28;20197;-60
2021/03/21 06:01:36;;;;;;;12.40;6.90;;;;;;;1.74;100.00;95458.59;5050597;28;20212;-61
2021/03/21 06:04:23;;;;;;;13.40;7.20;;;;;;;1.75;100.00;95470.38;5049991;28;20744;-61
2021/03/21 06:07:40;;;;;;;15.17;8.80;;;;;;;1.69;100.00;95472.09;5050131;28;20288;-60
2021/03/21 06:10:49;;;;;;;15.03;7.93;;;;;;;1.77;100.00;95465.03;5049697;28;20213;-61
2021/03/21 06:13:32;;;;;;;19.27;11.20;;;;;;;1.86;100.00;95461.03;5049575;28;20284;-59
2021/03/21 06:16:33;;;;;;;15.13;9.20;;;;;;;1.90;100.00;95455.19;5049869;28;20683;-60
2021/03/21 06:19:28;;;;;;;16.20;9.07;;;;;;;1.79;100.00;95466.34;5046360;28;20797;-60
2021/03/21 06:22:13;;;;;;;15.63;9.00;;;;;;;1.69;100.00;95464.41;5047422;28;20202;-60
2021/03/21 06:25:15;;;;;;;12.70;7.83;;;;;;;1.78;100.00;95464.00;5049785;28;20197;-61
2021/03/21 06:28:06;;;;;;;14.67;8.83;;;;;;;1.77;100.00;95470.91;5046103;28;20691;-60
2021/03/21 06:31:01;;;;;;;15.40;8.00;;;;;;;1.97;100.00;95476.28;5051426;28;20201;-60
2021/03/21 06:33:45;;;;;;;29.47;15.20;;;;;;;1.88;100.00;95482.06;5053876;28;20323;-59
2021/03/21 06:36:23;;;;;;;298.20;108.87;;;;;;;1.89;100.00;95491.31;5053832;28;20317;-59
2021/03/21 06:39:35;;;;;;;346.33;129.33;;;;;;;2.00;100.00;95492.94;5053770;28;20203;-60
2021/03/21 06:42:37;;;;;;;450.27;187.03;;;;;;;1.97;100.00;95490.88;5053629;28;20238;-60
2021/03/21 06:45:54;;;;;;;52.37;26.67;;;;;;;2.01;100.00;95491.94;5041832;28;20281;-60
2021/03/21 06:48:46;;;;;;;122.30;59.47;;;;;;;1.92;100.00;95495.94;5011094;28;20512;-61
2021/03/21 06:51:22;;;;;;;75.47;37.63;;;;;;;1.97;100.00;95496.78;5053508;28;20299;-61
2021/03/21 06:53:57;;;;;;;156.13;69.20;;;;;;;1.94;100.00;95489.59;5053126;28;20668;-61
2021/03/21 06:56:48;;;;;;;33.90;17.60;;;;;;;1.96;100.00;95486.75;5053072;28;20239;-61
2021/03/21 06:59:45;;;;;;;158.53;68.70;;;;;;;1.97;100.00;95493.44;5053185;28;20265;-61
2021/03/21 07:02:49;;;;;;;83.40;37.60;;;;;;;2.04;100.00;95494.03;5053108;28;20252;-61
2021/03/21 07:06:03;;;;;;;45.80;21.10;;;;;;;2.07;100.00;95480.75;5050563;28;20201;-60
2021/03/21 07:09:08;;;;;;;148.70;61.47;;;;;;;2.07;100.00;95491.00;5052949;28;20197;-60
2021/03/21 07:11:56;;;;;;;39.20;19.57;;;;;;;2.10;100.00;95483.59;5051739;28;20301;-61
2021/03/21 07:14:59;;;;;;;76.43;37.57;;;;;;;2.25;100.00;95485.53;5052678;28;20247;-60
2021/03/21 07:18:07;;;;;;;65.67;35.10;;;;;;;2.20;100.00;95484.72;5052523;28;20237;-62
2021/03/21 07:21:22;;;;;;;89.87;44.10;;;;;;;2.24;100.00;95478.88;5040006;28;20733;-61
2021/03/21 07:24:20;;;;;;;62.50;31.10;;;;;;;2.21;100.00;95476.78;5052547;28;20287;-60
2021/03/21 07:27:22;;;;;;;175.53;69.20;;;;;;;2.24;100.00;95484.03;5052607;28;20201;-60
2021/03/21 07:29:50;;;;;;;100.47;42.33;;;;;;;2.24;100.00;95483.25;5039595;28;20263;-59
2021/03/21 07:32:42;;;;;;;50.37;23.70;;;;;;;2.27;100.00;95478.41;5052429;28;20194;-59
2021/03/21 07:35:40;;;;;;;79.07;32.53;;;;;;;2.34;100.00;95471.28;5047105;28;20198;-62
2021/03/21 07:38:22;;;;;;;48.10;24.27;;;;;;;2.35;100.00;95467.69;5052308;28;20689;-59
2021/03/21 07:40:51;;;;;;;40.77;17.60;;;;;;;2.38;100.00;95464.66;5052395;28;20198;-59
2021/03/21 07:43:49;;;;;;;66.20;33.07;;;;;;;2.39;100.00;95468.75;5052205;28;20191;-57
2021/03/21 07:46:52;;;;;;;68.73;37.13;;;;;;;2.55;100.00;95474.81;5050361;28;20533;-59
2021/03/21 07:49:44;;;;;;;35.30;19.47;;;;;;;2.57;100.00;95468.44;5051846;28;20290;-59
2021/03/21 07:52:46;;;;;;;33.43;18.63;;;;;;;2.61;100.00;95473.84;5052250;28;20241;-60
2021/03/21 07:55:22;;;;;;;57.17;31.17;;;;;;;2.68;100.00;95466.72;5049518;28;20189;-60
2021/03/21 07:58:02;;;;;;;40.77;22.17;;;;;;;2.67;100.00;95477.22;5052143;28;20212;-60
2021/03/21 08:00:29;;;;;;;45.60;24.53;;;;;;;2.66;100.00;95473.09;5051993;28;20290;-61
2021/03/21 08:03:24;;;;;;;37.70;23.17;;;;;;;2.76;100.00;95475.75;5051693;28;20282;-60
2021/03/21 08:05:56;;;;;;;23.43;14.57;;;;;;;2.67;100.00;95469.53;5049097;28;20675;-60
2021/03/21 08:08:26;;;;;;;85.60;37.87;;;;;;;2.70;100.00;95463.91;5051683;28;20610;-60
2021/03/21 08:10:58;;;;;;;85.23;35.50;;;;;;;2.71;100.00;95466.25;5051568;28;20295;-60
2021/03/21 08:13:34;;;;;;;85.03;44.70;;;;;;;2.68;100.00;95453.13;5051536;28;20286;-60
2021/03/21 08:16:02;;;;;;;59.83;34.50;;;;;;;2.75;100.00;95456.25;5051754;28;20227;-60
2021/03/21 08:18:31;;;;;;;111.63;51.67;;;;;;;2.62;100.00;95448.97;5051746;28;20205;-61
2021/03/21 08:21:01;;;;;;;244.93;94.73;;;;;;;2.84;100.00;95440.16;5051547;28;20225;-61
2021/03/21 08:23:31;;;;;;;59.87;32.33;;;;;;;2.97;100.00;95433.84;5051433;28;20203;-60
2021/03/21 08:26:00;;;;;;;95.10;43.70;;;;;;;3.09;100.00;95439.56;5051332;28;20341;-60
2021/03/21 08:28:36;;;;;;;120.03;48.47;;;;;;;3.16;100.00;95439.34;5051491;28;20201;-60
2021/03/21 08:31:06;;;;;;;133.50;60.63;;;;;;;3.13;100.00;95425.22;5051155;28;20195;-60
2021/03/21 08:33:37;;;;;;;118.03;62.63;;;;;;;3.19;100.00;95426.78;5051431;28;20199;-61
2021/03/21 08:36:18;;;;;;;78.83;43.83;;;;;;;3.20;100.00;95436.03;5051298;28;20289;-61
2021/03/21 08:39:04;;;;;;;92.10;43.90;;;;;;;3.39;100.00;95431.25;5051196;28;20203;-61
2021/03/21 08:41:46;;;;;;;109.23;49.30;;;;;;;3.49;100.00;95428.00;5051243;28;20203;-61
2021/03/21 08:44:28;;;;;;;69.80;37.10;;;;;;;3.28;100.00;95422.75;5051093;28;20196;-60
2021/03/21 08:46:55;;;;;;;66.93;40.70;;;;;;;3.37;100.00;95421.25;5051033;28;20208;-61
2021/03/21 08:49:25;;;;;;;114.87;49.20;;;;;;;3.50;100.00;95426.94;5051122;28;20745;-60
2021/03/21 08:51:53;;;;;;;54.07;29.93;;;;;;;3.40;100.00;95419.97;5050978;28;20216;-60
2021/03/21 08:54:23;;;;;;;63.27;29.77;;;;;;;3.39;100.00;95419.19;5050353;28;20196;-61
2021/03/21 08:57:06;;;;;;;77.53;37.37;;;;;;;3.45;100.00;95409.72;5050790;28;20232;-60
2021/03/21 08:59:37;;;;;;;68.93;31.50;;;;;;;3.62;100.00;95412.13;5050828;28;20283;-60
2021/03/21 09:02:13;;;;;;;94.63;38.30;;;;;;;3.77;100.00;95412.19;5050782;28;20204;-61
2021/03/21 09:04:43;;;;;;;59.30;27.37;;;;;;;3.60;100.00;95409.00;5050555;28;20199;-61
2021/03/21 09:07:20;;;;;;;57.10;26.47;;;;;;;3.82;100.00;95401.91;5050657;28;20195;-60
2021/03/21 09:09:47;;;;;;;126.23;51.40;;;;;;;3.85;100.00;95411.69;5050405;28;20285;-59
2021/03/21 09:12:31;;;;;;;61.00;32.13;;;;;;;3.69;100.00;95403.13;5050697;28;20268;-61
2021/03/21 09:15:34;;;;;;;58.17;28.47;;;;;;;3.74;100.00;95400.59;5050515;28;20201;-60
2021/03/21 09:18:21;;;;;;;98.63;40.70;;;;;;;3.92;100.00;95394.22;5050440;28;20195;-60
2021/03/21 09:20:58;;;;;;;46.53;22.37;;;;;;;4.08;100.00;95395.81;5050491;28;20232;-60
2021/03/21 09:23:40;;;;;;;53.20;25.87;;;;;;;4.06;99.62;95385.00;5050586;28;20227;-60
2021/03/21 09:26:26;;;;;;;92.03;37.93;;;;;;;4.19;100.00;95384.50;5050292;28;20676;-61
2021/03/21 09:28:56;;;;;;;78.93;33.73;;;;;;;4.29;99.97;95394.03;5050256;28;20239;-60
2021/03/21 09:31:24;;;;;;;94.87;39.73;;;;;;;4.37;100.00;95385.03;5050516;28;20631;-60
2021/03/21 09:33:56;;;;;;;122.53;47.60;;;;;;;4.23;99.29;95377.81;5050507;28;20192;-60
2021/03/21 09:36:29;;;;;;;86.90;36.20;;;;;;;4.51;100.00;95376.56;5050069;28;20400;-59
2021/03/21 09:38:59;;;;;;;75.63;34.00;;;;;;;4.72;99.89;95379.91;5050111;28;20743;-60
2021/03/21 09:41:28;;;;;;;59.83;29.43;;;;;;;4.89;98.87;95382.19;5050274;28;20193;-60
2021/03/21 09:44:01;;;;;;;127.70;50.17;;;;;;;5.08;97.91;95378.81;5049999;28;20200;-61
2021/03/21 09:46:43;;;;;;;90.03;38.57;;;;;;;5.34;96.97;95383.88;5050126;28;20568;-61
2021/03/21 09:49:17;;;;;;;94.87;38.97;;;;;;;5.30;97.24;95393.19;5049543;28;20228;-61
2021/03/21 09:51:50;;;;;;;66.67;29.03;;;;;;;5.24;96.59;95391.66;5049778;28;20555;-62
2021/03/21 09:54:43;;;;;;;75.07;32.33;;;;;;;5.28;96.81;95379.81;5049932;28;20648;-59
2021/03/21 09:57:42;;;;;;;60.73;27.37;;;;;;;5.31;96.99;95387.00;5048114;28;20703;-60
2021/03/21 10:00:15;;;;;;;108.77;47.13;;;;;;;5.27;96.72;95393.72;5026875;28;20197;-61
2021/03/21 10:02:45;;;;;;;102.20;43.20;;;;;;;5.15;96.61;95399.91;5049694;28;20710;-62
2021/03/21 10:05:26;;;;;;;70.80;33.97;;;;;;;5.07;97.21;95395.31;5049011;28;20221;-62
2021/03/21 10:08:06;;;;;;;53.10;28.53;;;;;;;5.35;98.17;95386.22;5049663;28;20700;-61
2021/03/21 10:10:37;;;;;;;54.83;28.13;;;;;;;5.32;96.67;95383.41;5049478;28;20223;-60
2021/03/21 10:13:04;;;;;;;29.20;16.60;;;;;;;5.15;95.72;95383.69;5049743;28;20712;-62
2021/03/21 10:15:52;;;;;;;108.47;50.70;;;;;;;5.44;98.27;95376.13;5049712;28;20201;-61
2021/03/21 10:18:42;;;;;;;66.50;35.90;;;;;;;5.22;96.91;95362.81;5049363;28;20197;-60
2021/03/21 10:21:12;;;;;;;59.53;27.43;;;;;;;5.30;97.77;95360.47;5049818;28;20272;-60
2021/03/21 10:24:15;;;;;;;57.43;25.00;;;;;;;5.25;98.40;95351.97;5049305;28;20229;-60
2021/03/21 10:27:24;;;;;;;41.00;21.03;;;;;;;4.96;97.29;95352.59;5049747;28;20284;-61
2021/03/21 10:30:05;;;;;;;65.37;31.13;;;;;;;5.12;98.51;95350.75;5049725;28;20282;-62
2021/03/21 10:32:34;;;;;;;31.87;17.07;;;;;;;4.91;98.39;95344.88;5049498;28;20212;-60
2021/03/21 10:35:04;;;;;;;27.13;15.83;;;;;;;5.16;99.52;95349.97;5049423;28;20276;-60
2021/03/21 10:37:55;;;;;;;28.80;16.40;;;;;;;5.19;98.92;95354.56;5049270;28;20232;-61
2021/03/21 10:40:43;;;;;;;30.53;17.50;;;;;;;5.12;98.22;95354.09;5049179;28;20664;-61
2021/03/21 10:43:26;;;;;;;23.47;13.10;;;;;;;5.07;98.94;95361.06;5049223;28;20217;-60
2021/03/21 10:45:54;;;;;;;49.37;24.90;;;;;;;5.16;98.93;95357.69;5048960;28;20663;-61
2021/03/21 10:48:51;;;;;;;29.03;16.23;;;;;;;5.40;100.00;95347.56;5049051;28;20659;-60
2021/03/21 10:51:19;;;;;;;12.13;8.50;;;;;;;5.56;99.76;95338.72;5049133;28;20258;-61
2021/03/21 10:54:22;;;;;;;22.00;14.47;;;;;;;5.30;97.66;95333.94;5048902;28;20280;-61
2021/03/21 10:57:18;;;;;;;23.93;15.87;;;;;;;5.19;97.42;95323.66;5042320;28;20225;-61
2021/03/21 11:00:16;;;;;;;15.53;10.90;;;;;;;5.23;99.95;95325.72;5047464;28;20656;-61
2021/03/21 11:02:44;;;;;;;10.97;8.37;;;;;;;5.43;100.00;95331.56;5048985;28;20296;-61
2021/03/21 11:05:27;;;;;;;11.00;7.97;;;;;;;5.30;100.00;95321.06;5048835;28;20271;-59
2021/03/21 11:08:02;;;;;;;15.03;10.17;;;;;;;5.26;99.88;95313.09;5048948;28;20201;-61
2021/03/21 11:10:32;;;;;;;13.33;9.13;;;;;;;5.53;100.00;95313.47;5048665;28;20303;-62
2021/03/21 11:13:03;;;;;;;16.67;11.10;;;;;;;5.64;98.41;95314.19;5048855;28;20189;-60
2021/03/21 11:15:37;;;;;;;13.53;10.23;;;;;;;5.55;97.74;95315.78;5049010;28;20652;-61
2021/03/21 11:18:15;;;;;;;21.57;14.77;;;;;;;5.44;97.76;95314.28;5052614;28;20225;-60
2021/03/21 11:20:43;;;;;;;12.87;10.53;;;;;;;5.49;98.41;95311.69;5052900;28;20200;-60
2021/03/21 11:23:17;;;;;;;15.70;11.93;;;;;;;5.58;96.62;95304.94;5052509;28;20259;-62
2021/03/21 11:25:44;;;;;;;13.00;10.57;;;;;;;5.75;97.78;95304.59;5052505;28;20258;-59
2021/03/21 11:28:23;;;;;;;7.07;5.80;;;;;;;5.77;98.24;95298.16;5052440;28;20284;-60
2021/03/21 11:30:52;;;;;;;15.10;10.43;;;;;;;5.72;97.18;95287.09;5052430;28;20193;-61
2021/03/21 11:33:29;;;;;;;8.43;7.50;;;;;;;5.72;95.50;95285.28;5052336;28;20203;-62
2021/03/21 11:36:23;;;;;;;10.07;7.13;;;;;;;5.89;96.46;95272.81;5052666;28;20210;-61
2021/03/21 11:38:51;;;;;;;17.27;11.33;;;;;;;5.82;95.17;95272.34;5052262;28;20689;-61
2021/03/21 11:41:35;;;;;;;22.67;13.13;;;;;;;6.18;96.14;95262.53;5052273;28;20200;-61
2021/03/21 11:44:20;;;;;;;11.43;6.07;;;;;;;6.04;93.51;95259.03;5052311;28;20197;-62
2021/03/21 11:46:48;;;;;;;13.87;8.70;;;;;;;6.02;94.48;95254.19;5052550;28;20204;-62
2021/03/21 11:49:15;;;;;;;16.87;11.13;;;;;;;6.08;94.17;95252.31;5051885;28;20237;-61
2021/03/21 11:51:45;;;;;;;8.73;6.00;;;;;;;6.02;94.09;95249.00;5052040;28;20242;-60
2021/03/21 11:54:19;;;;;;;9.23;6.83;;;;;;;5.76;93.49;95255.34;5052034;28;20189;-60
2021/03/21 11:56:55;;;;;;;15.27;10.17;;;;;;;5.82;95.83;95225.94;5051877;28;20649;-60
2021/03/21 11:59:28;;;;;;;9.33;6.80;;;;;;;5.90;94.61;95235.69;5055072;28;20294;-61
2021/03/21 12:01:57;;;;;;;19.97;11.07;;;;;;;5.63;93.41;95228.38;5053225;28;20246;-62
2021/03/21 12:04:29;;;;;;;14.17;10.37;;;;;;;5.57;94.46;95221.72;5051804;28;20777;-62
2021/03/21 12:06:59;;;;;;;17.13;11.27;;;;;;;5.60;94.84;95225.56;5051749;28;20310;-62
2021/03/21 12:09:29;;;;;;;22.30;14.53;;;;;;;5.51;93.76;95230.53;5052073;28;20199;-61
2021/03/21 12:11:58;;;;;;;29.23;18.50;;;;;;;5.56;96.25;95224.56;5051915;28;20331;-61